Preview of NWS' New Version of Forecast
This preview is not operational and should not be used for support decisions.

Terminal Aerodrome Forecast (TAF)

Issued by National Weather Service (NWS)

                            
000
FTUS42 KMFL 150257 AAA
TAFMIA
TAF AMD
KMIA 150257Z 1503/1606 15010KT P6SM SCT020 SCT150 BKN200
     FM150900 16008KT P6SM VCSH SCT020 BKN040 OVC100
     FM151600 19011KT P6SM VCSH SCT020 BKN035 OVC050
     FM152300 23009KT P6SM VCSH SCT020 BKN050 BKN200
     FM160200 29007KT P6SM SCT050 BKN080 BKN200=